Surface observations / UK / EGBB

Quebec | Canada | USA | France | UK | Europe | Elsewhere

Display: Info & Location for EGBB | Help decoding METAR

EGBB BIRMINGHAM AIRPORT -- UK
Raw surface observations for station EGBB
EGBB 120520Z 14006KT 3900 BR NSC 01/01 Q0995=
EGBB 120450Z 13005KT 4500 BR SCT041 00/00 Q0995=
EGBB 120420Z 15004KT CAVOK 00/00 Q0995=
EGBB 120350Z 15005KT CAVOK M00/M00 Q0996=
EGBB 120320Z 15004KT 7000 NSC M00/M00 Q0996=
EGBB 120250Z 15004KT 7000 BKN039 01/01 Q0996=
EGBB 120220Z 16005KT 9999 BKN044 01/01 Q0997=
EGBB 120150Z 15004KT CAVOK 00/00 Q0997=
EGBB 120120Z 17004KT CAVOK 01/01 Q0997=
EGBB 120050Z 16005KT CAVOK 01/01 Q0997=
EGBB 120020Z 16006KT 9999 NSC 01/01 Q0998=
EGBB 112350Z 16005KT 9999 BKN027 BKN036 01/01 Q0998=
EGBB 112320Z 15005KT 9999 FEW023 01/01 Q0998=
EGBB 112250Z 17004KT 9999 SCT023 BKN029 BKN034 02/01 Q0998=
EGBB 112220Z 17004KT 9999 FEW032 03/02 Q0999=
EGBB 112150Z 16005KT 9999 FEW034 02/01 Q0999=
EGBB 112120Z 16004KT 9999 SCT034 02/01 Q1000=
EGBB 112050Z 15004KT 9999 SCT030 BKN035 02/01 Q1000=
EGBB 112020Z 17004KT 9999 SCT029 BKN046 02/01 Q1000=
EGBB 111950Z 16004KT 9999 BKN044 03/01 Q1000=
EGBB 111920Z 15004KT 9999 BKN049 03/00 Q1001=
EGBB 111850Z 17004KT 9999 BKN047 04/00 Q1001=
EGBB 111820Z 18003KT 9999 BKN048 04/00 Q1001=
EGBB 111750Z 15003KT 9999 BKN048 04/M00 Q1001=
EGBB 111720Z 19002KT 9999 SCT020 BKN049 05/M00 Q1001=
EGBB 111650Z 19004KT 9999 FEW024 05/M00 Q1001=
EGBB 111620Z 19004KT CAVOK 06/M00 Q1001=
EGBB 111550Z 21006KT 170V260 9999 FEW028 07/M00 Q1001=
EGBB 111520Z 19005KT 170V250 9999 FEW028 07/M00 Q1002=
EGBB 111450Z 20006KT 160V260 9999 FEW038 07/00 Q1002=
EGBB 111420Z 21007KT 180V240 9999 FEW024 07/01 Q1002=
EGBB 111350Z 24006KT 200V270 9999 FEW032 07/01 Q1002=
EGBB 111320Z 23006KT 180V270 9999 FEW030 07/01 Q1002=
EGBB 111250Z 23006KT CAVOK 07/01 Q1003=
EGBB 111220Z 24005KT 200V280 CAVOK 07/01 Q1003=
EGBB 111150Z 22006KT 180V260 CAVOK 06/02 Q1003=
EGBB 111120Z 23005KT 200V260 9999 FEW046 05/02 Q1003=
EGBB 111050Z 22004KT 190V260 9999 SCT046 05/02 Q1003=
EGBB 111020Z 21004KT 170V240 9999 FEW046 04/02 Q1003=
EGBB 110950Z 22005KT 9999 FEW047 03/02 Q1003=
EGBB 110920Z 19004KT 160V240 9999 FEW048 02/02 Q1003=
EGBB 110850Z 15004KT CAVOK 00/00 Q1003=
EGBB 110820Z 18003KT 9999 FEW040 M00/M00 Q1003=
EGBB 110750Z 15003KT CAVOK M01/M01 Q1003=
EGBB 110720Z VRB02KT CAVOK M01/M01 Q1003=
EGBB 110650Z 17002KT CAVOK M01/M01 Q1003=
EGBB 110620Z 15004KT CAVOK M01/M01 Q1003=
EGBB 110550Z 17003KT CAVOK M01/M01 Q1003=
EGBB 110520Z 16003KT CAVOK M01/M01 Q1003=